Tonasket, WA (98855)

8:55 AM PDT on July 23, 2016 (GMT -0700)
Sinlahekin Wildlife Area | | Change Station

Elev 1539 ft 48.75 °N, 119.65 °W | Updated 35 seconds ago

Clear
Clear
66.6 °F
Feels Like 66.6 °F
N
3.0
Wind Variable Wind from NNE
Gusts 3.0 mph

Today
High -- | Low -- °F
--% Chance of Precip.
Yesterday
High -- | Low -- °F
Precip. -- in
Pressure 30.14 in
Visibility 10.0 miles
Clouds Clear
Dew Point 46 °F
Humidity 47%
Rainfall 0.00 in
Snow Depth Not available.
5:20 AM 8:46 PM
Waning Gibbous, 84% visible
METAR KOMK 231553Z AUTO VRB03KT 10SM CLR 19/07 A3015 RMK AO2 SLP205 T01890072
Pressure 30.14 in
Visibility 10.0 miles
Clouds Clear
Dew Point 46 °F
Humidity 47%
Rainfall 0.00 in
Snow Depth Not available.
5:20 AM 8:46 PM
Waning Gibbous, 84% visible
METAR KOMK 231553Z AUTO VRB03KT 10SM CLR 19/07 A3015 RMK AO2 SLP205 T01890072

10-Day Weather Forecast

Almanac

Astronomy

Jul. 23, 2016 Rise Set
Actual Time
Civil Twilight
Nautical Twilight
Astronomical Twilight
Moon
Length of Visible Light
Length of Day
Tomorrow will be .
, % of the Moon is Illuminated

Today's Extremes

State Highs State Lows

Community

WunderPhotos

Upload Photos

1,926,848 photos uploaded!

WunderBlog® & News

Nearby

Air Quality

  Air Quality AQ Index Pollutant
Not available.

Snow Depth

Station Depth Elevation

Earthquake Activity

City Distance Mag. Time & Date
Minimum magnitude displayed is 2.5.

Coastal Water Temperatures

Place Temperature

Stations

Nearby Weather Stations

Station Location Temp. Windchill Dew Point Humidity Wind Precip. Elev Updated Type
                   

Watches & Warnings

There are currently no watches in effect.